Pagrindinis puslapis
METAR-TAF:

METAR-TAF

Oro uostai :

Džibučio

Džibutis, Džibutis

platuma: 11-33N, ilguma: 043-10E, Aukštis: 49 m

Dabartinis oras

Ataskaita buvo paskelbta 2 valandos ir 47 minutes, ne 04:00 UTC
Vėjas 7 kt iš Rytų/Pietryčių
Temperatūra 29°C
Drėgmė 79%
Slėgis 1012 hPa
Matomumas 10 km arba daugiau
Išsisklaidę debesys ne aukštis 2300 ft

METAR: HDAM 100400Z 11007KT 9999 SCT023 29/25 Q1012

Laikas: 09:47 (06:47 UTC)

Prognozė

Ataskaita buvo paskelbta 7 valandos ir 47 minutes, ne 23:00 UTC
Prognozė galioja nuo 10 metu 00 UTC su 10 metu 24 UTC
Vėjas kt iš Šiaurės
Matomumas 10 km arba daugiau
Išsisklaidę debesys ne aukštis 2000 ft
Tapsmas
nuo 10 metu 06 UTC su 10 metu 12 UTC
Vėjas 10 kt iš Rytų
Išsisklaidę debesys ne aukštis 2300 ft
Išsisklaidę debesys ne aukštis 2000 ft
Tapsmas
nuo 10 metu 15 UTC su 10 metu 21 UTC
Vėjas 5 kt nuo kintamojo kryptimis
Išsisklaidę debesys ne aukštis 2000 ft

TAF: HDAM 092300Z 1000/1024 00000KT 9999 SCT020 BECMG 1006/1012 08010KT SCT023 SCT020 BECMG 1015/1021 VRB05KT SCT020

Orai ataskaitas ir orų prognozės (METAR, TAF).

turimą stotys yra geltonos ir raudonos taškus žemėlapyje.

Perkelti pele per norėdami pamatyti stoties vardą.

Tada spustelėkite, norėdami matyti oro stebėjimo ir prognozės.

Norėdami pakeisti žemėlapį: spustelėkite ant žalios mygtukų su juodo kryžiaus žemyn,; žalią mygtuką su brūkšneliu, jei norite nutolinti; arba žalių rodyklių gretimoms žemėlapius.


METAR-TAF: